Time;durP1;ratioP1;P1;durP2;ratioP2;P2;SDS_P1;SDS_P2;PMS_P1;PMS_P2;Temp;Humidity;BMP_temperature;BMP_pressure;BME280_temperature;BME280_humidity;BME280_pressure;Samples;Min_cycle;Max_cycle;Signal;HPM_P1;HPM_P2
2023/07/30 00:01:33;;;;;;;23.38;5.88;;;16.30;99.90;;;;;;4934571;28;20519;-56
2023/07/30 00:03:59;;;;;;;24.48;6.20;;;16.40;99.90;;;;;;4935334;28;20835;-57
2023/07/30 00:06:25;;;;;;;23.13;6.18;;;16.30;99.90;;;;;;4931182;28;20051;-56
2023/07/30 00:08:51;;;;;;;23.55;6.45;;;16.30;99.90;;;;;;4934949;28;20065;-53
2023/07/30 00:11:16;;;;;;;20.83;7.05;;;16.30;99.90;;;;;;4932355;28;20086;-55
2023/07/30 00:13:42;;;;;;;24.55;6.00;;;16.40;99.90;;;;;;4923475;28;21056;-54
2023/07/30 00:16:08;;;;;;;23.02;6.53;;;16.40;99.90;;;;;;4934827;28;20047;-57
2023/07/30 00:18:34;;;;;;;20.58;6.30;;;16.40;99.90;;;;;;4934612;28;20402;-56
2023/07/30 00:21:00;;;;;;;19.75;6.03;;;16.30;99.90;;;;;;4915360;28;20414;-56
2023/07/30 00:23:25;;;;;;;23.30;6.30;;;16.30;99.90;;;;;;4908029;28;20182;-56
2023/07/30 00:25:51;;;;;;;15.95;5.68;;;16.40;99.90;;;;;;4935202;28;20048;-57
2023/07/30 00:28:17;;;;;;;20.83;6.13;;;16.40;99.90;;;;;;4934634;28;20098;-56
2023/07/30 00:30:43;;;;;;;21.25;6.32;;;16.30;99.90;;;;;;4930616;28;20048;-56
2023/07/30 00:33:08;;;;;;;22.15;6.63;;;16.30;99.90;;;;;;4933542;28;20122;-55
2023/07/30 00:35:34;;;;;;;24.40;7.45;;;16.30;99.90;;;;;;4932469;28;20043;-56
2023/07/30 00:38:00;;;;;;;25.77;7.43;;;16.30;99.90;;;;;;4931721;28;20066;-55
2023/07/30 00:40:25;;;;;;;22.40;7.88;;;16.20;99.90;;;;;;4934402;28;20046;-56
2023/07/30 00:42:51;;;;;;;27.42;7.80;;;16.20;99.90;;;;;;4931145;28;20050;-56
2023/07/30 00:45:17;;;;;;;24.67;6.90;;;16.20;99.90;;;;;;4934399;28;20066;-56
2023/07/30 00:47:43;;;;;;;28.77;7.35;;;16.20;99.90;;;;;;4931430;28;20378;-56
2023/07/30 00:50:12;;;;;;;22.13;7.10;;;16.10;99.90;;;;;;4930771;28;20054;-57
2023/07/30 00:52:39;;;;;;;21.33;6.75;;;16.10;99.90;;;;;;4934292;28;20058;-56
2023/07/30 00:55:06;;;;;;;20.08;6.68;;;16.10;99.90;;;;;;4913778;28;20589;-56
2023/07/30 00:57:33;;;;;;;19.83;7.22;;;16.10;99.90;;;;;;4932187;28;20051;-56
2023/07/30 00:59:59;;;;;;;18.38;7.10;;;16.10;99.90;;;;;;4935249;28;20874;-57
2023/07/30 01:02:24;;;;;;;26.52;7.85;;;16.10;99.90;;;;;;4929355;28;20039;-56
2023/07/30 01:04:51;;;;;;;20.17;6.55;;;16.10;99.90;;;;;;4891796;28;20051;-56
2023/07/30 01:07:17;;;;;;;24.60;7.32;;;16.10;99.90;;;;;;4914837;28;20078;-56
2023/07/30 01:09:43;;;;;;;20.90;7.22;;;16.10;99.90;;;;;;4931438;28;20382;-55
2023/07/30 01:12:09;;;;;;;24.27;6.63;;;16.10;99.90;;;;;;4928311;28;20062;-56
2023/07/30 01:14:37;;;;;;;19.73;6.13;;;16.10;99.90;;;;;;4932281;28;20069;-57
2023/07/30 01:17:04;;;;;;;20.52;7.13;;;16.10;99.90;;;;;;4927704;28;20098;-53
2023/07/30 01:19:30;;;;;;;22.65;6.45;;;16.10;99.90;;;;;;4928577;28;20813;-56
2023/07/30 01:21:56;;;;;;;24.20;7.85;;;16.10;99.90;;;;;;4930578;28;20448;-56
2023/07/30 01:24:22;;;;;;;19.88;7.07;;;16.10;99.90;;;;;;4919959;28;20053;-53
2023/07/30 01:27:01;;;;;;;23.13;6.97;;;16.10;99.90;;;;;;4911059;28;20058;-56
2023/07/30 01:29:37;;;;;;;20.52;6.30;;;16.10;99.90;;;;;;4916130;28;20497;-56
2023/07/30 01:32:07;;;;;;;20.80;6.82;;;16.10;99.90;;;;;;4925973;28;20051;-55
2023/07/30 01:34:36;;;;;;;14.75;6.38;;;16.10;99.90;;;;;;4928914;28;20047;-54
2023/07/30 01:37:02;;;;;;;22.85;6.95;;;16.10;99.90;;;;;;4934441;28;20047;-55
2023/07/30 01:39:29;;;;;;;20.20;6.72;;;16.10;99.90;;;;;;4947973;28;20502;-55
2023/07/30 01:41:55;;;;;;;22.48;6.60;;;16.10;99.90;;;;;;4931645;28;20050;-54
2023/07/30 01:44:21;;;;;;;22.75;6.55;;;16.10;99.90;;;;;;4948916;28;20480;-54
2023/07/30 01:46:47;;;;;;;18.23;6.70;;;16.10;99.90;;;;;;4932568;28;20078;-55
2023/07/30 01:49:12;;;;;;;19.42;6.47;;;16.10;99.90;;;;;;4952208;28;20046;-56
2023/07/30 01:51:38;;;;;;;25.90;7.05;;;16.10;99.90;;;;;;4950266;28;20414;-55
2023/07/30 01:54:04;;;;;;;21.40;6.53;;;16.10;99.90;;;;;;4949318;28;20434;-55
2023/07/30 01:56:29;;;;;;;28.15;6.30;;;16.10;99.90;;;;;;4951167;28;20039;-54
2023/07/30 01:58:55;;;;;;;26.13;6.72;;;16.10;99.90;;;;;;4946540;28;20094;-56
2023/07/30 02:01:21;;;;;;;24.92;6.65;;;16.10;99.90;;;;;;4949910;28;20118;-56
2023/07/30 02:03:47;;;;;;;24.05;6.70;;;16.10;99.90;;;;;;4951713;28;22024;-57
2023/07/30 02:06:12;;;;;;;21.17;6.43;;;16.20;99.90;;;;;;4921464;28;20571;-56
2023/07/30 02:08:38;;;;;;;22.17;6.18;;;16.20;99.90;;;;;;4950597;28;20058;-56
2023/07/30 02:11:04;;;;;;;27.23;7.78;;;16.20;99.90;;;;;;4936845;28;20121;-56
2023/07/30 02:13:30;;;;;;;30.08;7.13;;;16.20;99.90;;;;;;4951551;28;20047;-55
2023/07/30 02:15:55;;;;;;;21.70;6.50;;;16.20;99.90;;;;;;4950749;28;20397;-57
2023/07/30 02:18:21;;;;;;;30.10;7.22;;;16.20;99.90;;;;;;4949733;28;21003;-56
2023/07/30 02:20:47;;;;;;;24.88;6.93;;;16.20;99.90;;;;;;4948920;28;20050;-58
2023/07/30 02:23:16;;;;;;;29.63;6.35;;;16.20;99.90;;;;;;4947674;28;20669;-57
2023/07/30 02:25:43;;;;;;;23.45;6.43;;;16.20;99.90;;;;;;4951373;28;20050;-55
2023/07/30 02:28:09;;;;;;;25.55;7.57;;;16.20;99.90;;;;;;4913093;28;20082;-54
2023/07/30 02:30:35;;;;;;;27.58;7.03;;;16.30;99.90;;;;;;4947223;28;20081;-56
2023/07/30 02:33:01;;;;;;;24.05;6.57;;;16.30;99.90;;;;;;4937979;28;20466;-57
2023/07/30 02:35:27;;;;;;;32.40;7.05;;;16.20;99.90;;;;;;4935723;28;20520;-57
2023/07/30 02:37:53;;;;;;;20.33;5.95;;;16.30;99.90;;;;;;4950117;28;20134;-56
2023/07/30 02:40:18;;;;;;;28.92;6.65;;;16.30;99.90;;;;;;4954061;28;20615;-55
2023/07/30 02:42:44;;;;;;;18.95;6.63;;;16.30;99.90;;;;;;4951811;28;20349;-56
2023/07/30 02:45:10;;;;;;;20.90;6.03;;;16.30;99.90;;;;;;4953046;28;20461;-56
2023/07/30 02:47:36;;;;;;;29.42;7.05;;;16.30;99.90;;;;;;4951574;28;20046;-55
2023/07/30 02:50:05;;;;;;;30.67;6.63;;;16.20;99.90;;;;;;4944643;28;20160;-56
2023/07/30 02:52:31;;;;;;;25.50;6.28;;;16.20;99.90;;;;;;4945586;28;20134;-56
2023/07/30 02:54:57;;;;;;;26.67;6.28;;;16.20;99.90;;;;;;4948281;28;20049;-56
2023/07/30 02:57:23;;;;;;;25.27;6.28;;;16.20;99.90;;;;;;4950028;28;20078;-57
2023/07/30 02:59:48;;;;;;;28.33;6.50;;;16.20;99.90;;;;;;4950386;28;20035;-55
2023/07/30 03:02:14;;;;;;;28.45;6.93;;;16.10;99.90;;;;;;4953804;28;20049;-56
2023/07/30 03:04:40;;;;;;;27.67;6.57;;;16.20;99.90;;;;;;4956225;28;20082;-56
2023/07/30 03:07:06;;;;;;;23.52;5.68;;;16.10;99.90;;;;;;4936434;28;20054;-55
2023/07/30 03:09:32;;;;;;;21.42;6.15;;;16.10;99.90;;;;;;4954263;28;20551;-57
2023/07/30 03:11:59;;;;;;;21.33;6.45;;;16.10;99.90;;;;;;4953511;28;20054;-57
2023/07/30 03:14:25;;;;;;;24.00;6.85;;;16.10;99.90;;;;;;4954337;28;20402;-56
2023/07/30 03:16:50;;;;;;;27.50;5.82;;;16.10;99.90;;;;;;4955121;28;20047;-55
2023/07/30 03:19:16;;;;;;;27.55;6.40;;;16.00;99.90;;;;;;4954443;28;20057;-57
2023/07/30 03:21:42;;;;;;;25.45;6.38;;;16.00;99.90;;;;;;4921493;28;20521;-56
2023/07/30 03:24:08;;;;;;;24.58;6.20;;;16.00;99.90;;;;;;4952859;28;20393;-57
2023/07/30 03:26:34;;;;;;;23.58;5.93;;;16.00;99.90;;;;;;4954766;28;21738;-55
2023/07/30 03:29:00;;;;;;;25.08;5.97;;;16.00;99.90;;;;;;4954512;28;20039;-56
2023/07/30 03:31:26;;;;;;;21.77;6.00;;;16.00;99.90;;;;;;4956806;28;20345;-56
2023/07/30 03:33:51;;;;;;;29.60;6.30;;;16.00;99.90;;;;;;4954826;28;20043;-55
2023/07/30 03:36:17;;;;;;;21.85;5.40;;;15.90;99.90;;;;;;4935200;28;20069;-57
2023/07/30 03:38:43;;;;;;;22.98;6.00;;;15.90;99.90;;;;;;4951779;28;20432;-56
2023/07/30 03:41:10;;;;;;;27.45;6.07;;;15.80;99.90;;;;;;4953859;28;20541;-57
2023/07/30 03:43:36;;;;;;;25.95;6.22;;;15.90;99.90;;;;;;4944185;28;20086;-56
2023/07/30 03:46:02;;;;;;;24.85;5.65;;;15.80;99.90;;;;;;4936352;28;20189;-56
2023/07/30 03:48:28;;;;;;;19.73;5.85;;;15.80;99.90;;;;;;4953177;28;20042;-55
2023/07/30 03:50:55;;;;;;;20.52;5.53;;;15.80;99.90;;;;;;4933985;28;20043;-54
2023/07/30 03:53:21;;;;;;;22.90;5.90;;;15.70;99.90;;;;;;4952457;28;20834;-57
2023/07/30 03:55:47;;;;;;;15.52;5.22;;;15.80;99.90;;;;;;4955455;28;20050;-57
2023/07/30 03:58:13;;;;;;;27.27;5.72;;;15.70;99.90;;;;;;4937753;28;20054;-56
2023/07/30 04:00:39;;;;;;;22.45;5.88;;;15.70;99.90;;;;;;4949306;28;20074;-56
2023/07/30 04:03:05;;;;;;;18.58;5.13;;;15.70;99.90;;;;;;4947762;28;20385;-56
2023/07/30 04:05:31;;;;;;;23.60;5.32;;;15.70;99.90;;;;;;4932687;28;20053;-55
2023/07/30 04:07:57;;;;;;;22.10;5.25;;;15.70;99.90;;;;;;4949749;28;20059;-55
2023/07/30 04:10:23;;;;;;;24.52;6.00;;;15.70;99.90;;;;;;4951214;28;20066;-56
2023/07/30 04:12:48;;;;;;;23.73;6.30;;;15.70;99.90;;;;;;4949310;28;21575;-55
2023/07/30 04:15:17;;;;;;;25.20;5.70;;;15.70;99.90;;;;;;4950532;28;20148;-54
2023/07/30 04:17:43;;;;;;;23.42;5.38;;;15.80;99.90;;;;;;4950680;28;20367;-57
2023/07/30 04:20:09;;;;;;;23.63;5.82;;;15.80;99.90;;;;;;4935583;28;20079;-55
2023/07/30 04:22:36;;;;;;;23.85;5.97;;;15.80;99.90;;;;;;4950713;28;20348;-55
2023/07/30 04:25:03;;;;;;;21.15;5.15;;;15.80;99.90;;;;;;4950679;28;20179;-56
2023/07/30 04:27:29;;;;;;;23.80;5.78;;;15.80;99.90;;;;;;4932212;28;20054;-56
2023/07/30 04:29:55;;;;;;;26.60;5.80;;;15.80;99.90;;;;;;4948723;28;20434;-57
2023/07/30 04:32:20;;;;;;;24.08;6.07;;;15.80;99.90;;;;;;4952176;28;20101;-57
2023/07/30 04:34:46;;;;;;;26.42;6.13;;;15.80;99.90;;;;;;4949010;28;20478;-56
2023/07/30 04:37:12;;;;;;;16.13;5.13;;;15.80;99.90;;;;;;4947692;28;20047;-57
2023/07/30 04:39:38;;;;;;;16.05;5.50;;;15.80;99.90;;;;;;4947585;28;20089;-57
2023/07/30 04:42:04;;;;;;;32.40;5.70;;;15.90;99.90;;;;;;4948817;28;20098;-58
2023/07/30 04:44:30;;;;;;;26.77;5.05;;;15.90;99.90;;;;;;4950106;28;20047;-56
2023/07/30 04:46:56;;;;;;;25.67;5.30;;;15.90;99.90;;;;;;4952803;28;20122;-58
2023/07/30 04:49:21;;;;;;;18.33;5.55;;;16.00;99.90;;;;;;4930073;28;20086;-56
2023/07/30 04:51:47;;;;;;;26.55;5.28;;;16.00;99.90;;;;;;4947416;28;20047;-57
2023/07/30 04:54:13;;;;;;;20.17;5.38;;;16.00;99.90;;;;;;4946950;28;20098;-56
2023/07/30 04:56:38;;;;;;;17.55;4.70;;;16.10;99.90;;;;;;4948284;28;20058;-55
2023/07/30 04:59:04;;;;;;;21.88;5.35;;;16.10;99.90;;;;;;4920958;28;20054;-55
2023/07/30 05:01:31;;;;;;;25.25;5.40;;;16.10;99.90;;;;;;4936780;28;20138;-55
2023/07/30 05:03:57;;;;;;;24.55;5.45;;;16.10;99.90;;;;;;4949984;28;20489;-57
2023/07/30 05:06:23;;;;;;;18.80;5.13;;;16.20;99.90;;;;;;4947744;28;20065;-58
2023/07/30 05:08:49;;;;;;;25.52;4.65;;;16.10;99.90;;;;;;4934380;28;20406;-57
2023/07/30 05:11:14;;;;;;;23.52;4.78;;;16.20;99.90;;;;;;4935731;28;20051;-56
2023/07/30 05:13:40;;;;;;;18.05;4.70;;;16.20;99.90;;;;;;4950147;28;20046;-56
2023/07/30 05:16:06;;;;;;;17.95;4.65;;;16.20;99.90;;;;;;4933314;28;20046;-56
2023/07/30 05:18:32;;;;;;;21.45;5.10;;;16.20;99.90;;;;;;4931559;28;20046;-58
2023/07/30 05:20:58;;;;;;;19.98;4.18;;;16.20;99.90;;;;;;4933589;28;20110;-58
2023/07/30 05:23:24;;;;;;;20.25;4.50;;;16.30;99.90;;;;;;4951511;28;20122;-56
2023/07/30 05:25:50;;;;;;;23.20;4.50;;;16.30;99.90;;;;;;4937912;28;20050;-57
2023/07/30 05:28:15;;;;;;;17.70;3.97;;;16.30;99.90;;;;;;4929566;28;20043;-55
2023/07/30 05:30:41;;;;;;;20.73;5.10;;;16.30;99.90;;;;;;4949610;28;20051;-56
2023/07/30 05:33:07;;;;;;;20.50;4.75;;;16.30;99.90;;;;;;4947327;28;20551;-57
2023/07/30 05:35:32;;;;;;;18.90;4.20;;;16.30;99.90;;;;;;4949729;28;20122;-57
2023/07/30 05:37:58;;;;;;;18.33;4.63;;;16.40;99.90;;;;;;4950374;28;20523;-58
2023/07/30 05:40:24;;;;;;;20.10;4.07;;;16.40;99.90;;;;;;4952191;28;20047;-57
2023/07/30 05:42:50;;;;;;;28.52;4.30;;;16.50;99.90;;;;;;4931561;28;20050;-58
2023/07/30 05:45:15;;;;;;;19.88;4.28;;;16.50;99.90;;;;;;4951545;28;20054;-56
2023/07/30 05:47:41;;;;;;;18.98;4.70;;;16.60;99.90;;;;;;4934662;28;20039;-57
2023/07/30 05:50:08;;;;;;;20.35;4.35;;;16.60;99.90;;;;;;4952608;28;20574;-57
2023/07/30 05:52:34;;;;;;;15.73;3.50;;;16.70;99.90;;;;;;4949161;28;20055;-57
2023/07/30 05:55:00;;;;;;;15.45;4.03;;;16.70;99.90;;;;;;4952047;28;20089;-57
2023/07/30 05:57:26;;;;;;;18.25;3.75;;;16.70;99.90;;;;;;4952690;28;20461;-56
2023/07/30 05:59:52;;;;;;;14.10;3.70;;;16.80;99.90;;;;;;4951944;28;20098;-55
2023/07/30 06:02:17;;;;;;;12.57;3.78;;;16.80;99.90;;;;;;4951204;28;20046;-57
2023/07/30 06:04:43;;;;;;;14.30;3.85;;;16.90;99.90;;;;;;4931265;28;20055;-56
2023/07/30 06:07:10;;;;;;;19.70;4.00;;;16.90;99.90;;;;;;4934125;28;20134;-56
2023/07/30 06:09:36;;;;;;;18.85;4.38;;;17.00;99.90;;;;;;4935731;28;20065;-56
2023/07/30 06:12:03;;;;;;;14.90;4.22;;;17.00;99.90;;;;;;4947069;28;20504;-54
2023/07/30 06:14:28;;;;;;;15.32;3.72;;;17.10;99.90;;;;;;4953428;28;20510;-57
2023/07/30 06:16:54;;;;;;;16.92;3.88;;;17.10;99.90;;;;;;4949752;28;20053;-58
2023/07/30 06:19:20;;;;;;;17.98;3.63;;;17.10;99.90;;;;;;4950144;28;20042;-57
2023/07/30 06:21:46;;;;;;;18.30;3.75;;;17.20;99.90;;;;;;4947396;28;20039;-57
2023/07/30 06:24:12;;;;;;;9.52;3.00;;;17.20;99.90;;;;;;4928213;28;20117;-57
2023/07/30 06:26:37;;;;;;;15.30;3.45;;;17.20;99.90;;;;;;4949859;28;20038;-57
2023/07/30 06:29:03;;;;;;;11.95;3.25;;;17.30;99.90;;;;;;4950707;28;20035;-56
2023/07/30 06:31:29;;;;;;;14.73;2.95;;;17.30;99.90;;;;;;4952358;28;20541;-57
2023/07/30 06:33:55;;;;;;;15.82;3.85;;;17.40;99.90;;;;;;4952821;28;20401;-56
2023/07/30 06:36:21;;;;;;;13.90;3.38;;;17.50;99.90;;;;;;4949708;28;20054;-56
2023/07/30 06:38:46;;;;;;;9.50;3.00;;;17.50;99.90;;;;;;4952800;28;20793;-56
2023/07/30 06:41:12;;;;;;;12.70;3.08;;;17.50;99.90;;;;;;4937290;28;20042;-58
2023/07/30 06:43:38;;;;;;;18.92;3.25;;;17.60;99.90;;;;;;4950949;28;20043;-56
2023/07/30 06:46:04;;;;;;;16.85;3.13;;;17.60;99.90;;;;;;4949622;28;20047;-57
2023/07/30 06:48:30;;;;;;;11.55;3.15;;;17.70;99.90;;;;;;4952080;28;20049;-57
2023/07/30 06:50:57;;;;;;;17.23;3.40;;;17.70;99.90;;;;;;4935621;28;20047;-57
2023/07/30 06:53:22;;;;;;;11.55;2.75;;;17.70;99.90;;;;;;4950619;28;20047;-58
2023/07/30 06:55:48;;;;;;;18.17;3.28;;;17.70;99.90;;;;;;4949543;28;20042;-56
2023/07/30 06:58:14;;;;;;;14.52;3.53;;;17.70;99.90;;;;;;4951422;28;20039;-56
2023/07/30 07:00:39;;;;;;;12.52;3.45;;;17.60;99.90;;;;;;4951439;28;20622;-57
2023/07/30 07:03:05;;;;;;;21.55;4.05;;;17.60;99.90;;;;;;4930027;28;20061;-57
2023/07/30 07:05:31;;;;;;;10.38;3.08;;;17.70;99.90;;;;;;4913711;28;20058;-53
2023/07/30 07:07:57;;;;;;;13.45;3.70;;;17.70;99.90;;;;;;4950102;28;20035;-57
2023/07/30 07:10:22;;;;;;;14.02;3.80;;;17.70;99.90;;;;;;4939424;28;20389;-56
2023/07/30 07:12:48;;;;;;;20.88;4.00;;;17.70;99.90;;;;;;4951891;28;20125;-58
2023/07/30 07:15:14;;;;;;;10.80;3.08;;;17.70;99.90;;;;;;4952696;28;20580;-57
2023/07/30 07:17:40;;;;;;;13.55;3.50;;;17.80;99.90;;;;;;4924180;28;20672;-53
2023/07/30 07:20:07;;;;;;;16.17;3.08;;;17.80;99.90;;;;;;4951924;28;20073;-57
2023/07/30 07:22:33;;;;;;;12.40;3.03;;;17.90;99.90;;;;;;4949690;28;20097;-55
2023/07/30 07:24:59;;;;;;;14.25;3.05;;;17.90;99.90;;;;;;4950995;28;20050;-56
2023/07/30 07:27:25;;;;;;;10.25;3.05;;;18.00;99.90;;;;;;4948546;28;20062;-57
2023/07/30 07:29:52;;;;;;;13.35;2.88;;;18.10;99.90;;;;;;4949275;28;20046;-56
2023/07/30 07:32:18;;;;;;;15.98;2.92;;;18.30;99.90;;;;;;4953200;28;20405;-57
2023/07/30 07:34:48;;;;;;;13.98;2.78;;;18.40;99.90;;;;;;4934601;28;20482;-56
2023/07/30 07:37:16;;;;;;;14.65;2.75;;;18.50;99.90;;;;;;4950245;28;20101;-59
2023/07/30 07:39:43;;;;;;;10.27;2.33;;;18.70;99.90;;;;;;4948633;28;20070;-58
2023/07/30 07:42:09;;;;;;;12.73;2.63;;;18.90;99.90;;;;;;4950818;28;20051;-57
2023/07/30 07:44:35;;;;;;;8.52;2.10;;;19.00;99.90;;;;;;4952342;28;20049;-58
2023/07/30 07:47:01;;;;;;;13.38;2.70;;;19.10;99.90;;;;;;4934861;28;20161;-56
2023/07/30 07:49:27;;;;;;;11.35;2.33;;;19.10;99.90;;;;;;4932274;28;20039;-57
2023/07/30 07:51:53;;;;;;;10.98;2.20;;;19.10;99.90;;;;;;4949879;28;20486;-58
2023/07/30 07:54:18;;;;;;;10.85;2.45;;;19.30;99.90;;;;;;4951285;28;20047;-57
2023/07/30 07:56:44;;;;;;;8.73;2.40;;;19.30;99.90;;;;;;4933238;28;20050;-57
2023/07/30 07:59:10;;;;;;;9.90;2.40;;;19.30;99.90;;;;;;4950015;28;20050;-57
2023/07/30 08:01:35;;;;;;;10.20;2.50;;;19.20;99.90;;;;;;4950817;28;20051;-57
2023/07/30 08:04:02;;;;;;;13.25;2.78;;;19.10;99.90;;;;;;4947242;28;20059;-56
2023/07/30 08:06:27;;;;;;;11.00;2.80;;;19.10;99.90;;;;;;4948630;28;20057;-54
2023/07/30 08:08:53;;;;;;;6.88;2.05;;;19.10;99.90;;;;;;4949533;28;20047;-56
2023/07/30 08:11:19;;;;;;;12.25;2.45;;;19.00;99.90;;;;;;4939808;28;20071;-56
2023/07/30 08:13:45;;;;;;;11.48;2.45;;;18.90;99.90;;;;;;4937916;28;24088;-59
2023/07/30 08:16:11;;;;;;;11.35;2.30;;;18.80;99.90;;;;;;4948299;28;20046;-55
2023/07/30 08:18:37;;;;;;;9.13;2.10;;;18.80;99.90;;;;;;4948678;28;20043;-56
2023/07/30 08:21:03;;;;;;;11.95;2.35;;;18.80;99.90;;;;;;4933828;28;20109;-57
2023/07/30 08:23:29;;;;;;;11.48;2.70;;;18.90;99.90;;;;;;4949715;28;20082;-54
2023/07/30 08:25:54;;;;;;;11.82;2.40;;;18.90;99.90;;;;;;4943958;28;20141;-52
2023/07/30 08:28:20;;;;;;;12.27;2.40;;;19.00;99.90;;;;;;4948234;28;20081;-58
2023/07/30 08:30:46;;;;;;;11.32;2.25;;;19.00;99.90;;;;;;4948995;28;20483;-57
2023/07/30 08:33:12;;;;;;;13.07;2.83;;;19.10;99.90;;;;;;4952177;28;20049;-58
2023/07/30 08:35:38;;;;;;;12.05;2.35;;;19.10;99.90;;;;;;4949500;28;20030;-56
2023/07/30 08:38:04;;;;;;;12.52;2.22;;;19.20;99.90;;;;;;4948072;28;20061;-56
2023/07/30 08:40:29;;;;;;;10.57;2.75;;;19.20;99.90;;;;;;4930593;28;20777;-58
2023/07/30 08:42:55;;;;;;;10.98;2.55;;;19.10;99.90;;;;;;4946277;28;20062;-58
2023/07/30 08:45:21;;;;;;;13.60;3.05;;;19.10;99.90;;;;;;4948359;28;20094;-55
2023/07/30 08:47:47;;;;;;;8.60;2.47;;;19.10;99.90;;;;;;4952167;28;20043;-57
2023/07/30 08:50:13;;;;;;;12.18;2.30;;;19.10;99.90;;;;;;4950053;28;20134;-56
2023/07/30 08:52:40;;;;;;;10.60;2.60;;;19.10;99.90;;;;;;4947447;28;20079;-56
2023/07/30 08:55:07;;;;;;;15.05;2.25;;;19.10;99.90;;;;;;4950042;28;20041;-56
2023/07/30 08:57:33;;;;;;;12.55;2.10;;;19.20;99.90;;;;;;4946216;28;20069;-57
2023/07/30 09:00:05;;;;;;;10.60;3.17;;;19.30;99.90;;;;;;4949111;28;20047;-56
2023/07/30 09:02:37;;;;;;;9.60;2.53;;;19.50;99.90;;;;;;4954815;28;20520;-57
2023/07/30 09:05:04;;;;;;;14.15;2.60;;;19.70;99.90;;;;;;4952938;28;20043;-57
2023/07/30 09:07:29;;;;;;;11.88;2.53;;;19.80;99.90;;;;;;4934315;28;20125;-57
2023/07/30 09:09:55;;;;;;;13.05;2.60;;;19.90;99.90;;;;;;4933937;28;20396;-56
2023/07/30 09:12:28;;;;;;;15.25;2.42;;;19.90;99.90;;;;;;4952379;28;20058;-57
2023/07/30 09:14:54;;;;;;;10.10;2.40;;;19.80;99.90;;;;;;4946431;28;20164;-56
2023/07/30 09:17:20;;;;;;;8.10;2.60;;;19.70;99.90;;;;;;4924094;28;20084;-57
2023/07/30 09:19:50;;;;;;;10.30;2.00;;;19.60;99.90;;;;;;4951943;28;20043;-56
2023/07/30 09:22:29;;;;;;;7.97;1.80;;;19.50;99.90;;;;;;4935681;28;20199;-56
2023/07/30 09:24:56;;;;;;;7.20;1.63;;;19.40;99.90;;;;;;4934520;28;20039;-57
2023/07/30 09:27:26;;;;;;;9.40;2.08;;;19.30;99.90;;;;;;4949939;28;20529;-56
2023/07/30 09:29:53;;;;;;;6.88;1.90;;;19.30;99.90;;;;;;4952937;28;20055;-57
2023/07/30 09:32:19;;;;;;;7.57;1.55;;;19.10;99.90;;;;;;4944835;28;20441;-57
2023/07/30 09:34:46;;;;;;;5.97;1.30;;;19.10;99.90;;;;;;4944084;28;20394;-56
2023/07/30 09:37:13;;;;;;;9.63;1.63;;;19.00;99.90;;;;;;4944481;28;20578;-57
2023/07/30 09:39:38;;;;;;;6.65;1.38;;;19.00;99.90;;;;;;4942672;28;20054;-56
2023/07/30 09:42:05;;;;;;;7.53;2.33;;;19.00;99.90;;;;;;4949688;28;20354;-56
2023/07/30 09:44:35;;;;;;;6.90;1.70;;;19.00;99.90;;;;;;4931347;28;20051;-56
2023/07/30 09:47:05;;;;;;;5.57;1.30;;;19.00;99.90;;;;;;4938937;28;20038;-56
2023/07/30 09:49:31;;;;;;;6.43;1.40;;;19.00;99.90;;;;;;4922982;28;20054;-55
2023/07/30 09:51:58;;;;;;;6.50;1.40;;;19.10;99.90;;;;;;4937544;28;20667;-56
2023/07/30 09:54:24;;;;;;;7.32;1.48;;;19.20;99.90;;;;;;4925183;28;21556;-56
2023/07/30 09:56:50;;;;;;;4.03;1.48;;;19.30;99.90;;;;;;4941033;28;20239;-57
2023/07/30 09:59:15;;;;;;;6.32;1.33;;;19.40;99.90;;;;;;4937750;28;20042;-56
2023/07/30 10:01:49;;;;;;;4.97;1.60;;;19.40;99.90;;;;;;4941695;28;20723;-57
2023/07/30 10:04:18;;;;;;;6.97;1.35;;;19.50;99.90;;;;;;4942975;28;20050;-56
2023/07/30 10:06:58;;;;;;;7.95;1.65;;;19.50;99.90;;;;;;4943886;28;20109;-57
2023/07/30 10:09:28;;;;;;;7.97;1.40;;;19.50;99.90;;;;;;4944079;28;20505;-57
2023/07/30 10:11:55;;;;;;;5.57;1.75;;;19.50;99.90;;;;;;4943785;28;20600;-56
2023/07/30 10:14:24;;;;;;;6.13;1.50;;;19.60;99.90;;;;;;4942477;28;20498;-57
2023/07/30 10:16:52;;;;;;;7.00;1.73;;;19.70;99.90;;;;;;4932483;28;20285;-56
2023/07/30 10:19:21;;;;;;;6.65;1.70;;;19.90;99.90;;;;;;4945590;28;20050;-57
2023/07/30 10:21:47;;;;;;;7.05;1.95;;;20.10;99.90;;;;;;4939345;28;20097;-57
2023/07/30 10:24:13;;;;;;;9.68;2.10;;;20.40;99.90;;;;;;4927610;28;20905;-56
2023/07/30 10:26:38;;;;;;;7.72;1.90;;;20.80;99.90;;;;;;4938003;28;20592;-55
2023/07/30 10:29:17;;;;;;;7.30;1.85;;;21.00;99.90;;;;;;4923808;28;20094;-55
2023/07/30 10:31:55;;;;;;;11.50;2.65;;;21.00;99.90;;;;;;4940465;28;20050;-56
2023/07/30 10:34:21;;;;;;;6.10;1.92;;;20.80;99.90;;;;;;4945929;28;20047;-57
2023/07/30 10:36:49;;;;;;;12.00;1.98;;;20.50;99.90;;;;;;4943240;28;20051;-54
2023/07/30 10:39:19;;;;;;;14.60;2.22;;;20.30;99.90;;;;;;4951136;28;20062;-56
2023/07/30 10:41:48;;;;;;;9.98;2.30;;;20.20;99.90;;;;;;4953639;28;20050;-56
2023/07/30 10:44:33;;;;;;;6.35;1.85;;;20.20;99.90;;;;;;4953966;28;20126;-57
2023/07/30 10:47:00;;;;;;;8.55;1.90;;;20.50;99.90;;;;;;4941131;28;20058;-57
2023/07/30 10:49:27;;;;;;;8.13;2.00;;;20.90;99.90;;;;;;4943359;28;20054;-63
2023/07/30 10:51:54;;;;;;;10.38;2.00;;;21.30;99.90;;;;;;4946539;28;20054;-60
2023/07/30 10:54:20;;;;;;;13.60;2.13;;;21.60;99.90;;;;;;4956574;28;20078;-58
2023/07/30 10:56:46;;;;;;;10.57;2.00;;;22.00;99.90;;;;;;4953425;28;20047;-60
2023/07/30 10:59:13;;;;;;;13.57;2.40;;;22.20;99.90;;;;;;4947431;28;20047;-59
2023/07/30 11:01:44;;;;;;;11.13;2.33;;;22.40;99.90;;;;;;4949189;28;20050;-59
2023/07/30 11:04:20;;;;;;;7.13;1.70;;;22.60;99.90;;;;;;4930260;28;20358;-60
2023/07/30 11:06:51;;;;;;;12.30;2.42;;;22.90;99.90;;;;;;4918364;28;20454;-59
2023/07/30 11:09:27;;;;;;;9.05;2.15;;;22.80;99.10;;;;;;4949788;28;21589;-60
2023/07/30 11:11:55;;;;;;;7.65;2.13;;;22.60;98.40;;;;;;4935141;28;22079;-60
2023/07/30 11:14:28;;;;;;;11.85;2.17;;;22.60;97.60;;;;;;4945733;28;20043;-60
2023/07/30 11:17:00;;;;;;;8.30;1.63;;;22.60;97.50;;;;;;4948165;28;20117;-60
2023/07/30 11:19:29;;;;;;;9.80;2.75;;;22.70;97.20;;;;;;4949251;28;20082;-60
2023/07/30 11:21:56;;;;;;;9.73;2.10;;;22.60;96.30;;;;;;4931033;28;20047;-59
2023/07/30 11:24:33;;;;;;;8.07;1.85;;;22.70;96.20;;;;;;4932566;28;20043;-59
2023/07/30 11:27:00;;;;;;;8.75;1.98;;;22.80;95.30;;;;;;4954703;28;20045;-60
2023/07/30 11:29:26;;;;;;;8.63;2.78;;;23.00;95.70;;;;;;4927535;28;20081;-60
2023/07/30 11:31:59;;;;;;;9.88;1.90;;;23.10;94.60;;;;;;4950017;28;20031;-60
2023/07/30 11:34:26;;;;;;;8.02;1.90;;;23.30;94.50;;;;;;4943525;28;20122;-56
2023/07/30 11:36:53;;;;;;;9.68;2.08;;;23.50;94.20;;;;;;4952875;28;20039;-58
2023/07/30 11:39:19;;;;;;;7.45;2.08;;;23.60;94.00;;;;;;4954719;28;20059;-57
2023/07/30 11:41:45;;;;;;;6.97;1.92;;;23.60;93.80;;;;;;4953578;28;20047;-59
2023/07/30 11:44:33;;;;;;;10.07;1.98;;;23.40;93.50;;;;;;4952316;28;20121;-59
2023/07/30 11:46:59;;;;;;;6.78;2.03;;;23.20;94.10;;;;;;4933549;28;20476;-60
2023/07/30 11:49:25;;;;;;;10.32;2.30;;;23.10;93.60;;;;;;4934104;28;20039;-61
2023/07/30 11:51:51;;;;;;;5.63;1.90;;;23.10;93.80;;;;;;4950357;28;20043;-58
2023/07/30 11:54:23;;;;;;;9.02;2.05;;;23.30;94.10;;;;;;4948729;28;20055;-60
2023/07/30 11:56:56;;;;;;;12.27;1.95;;;23.40;93.70;;;;;;4947051;28;20050;-60
2023/07/30 11:59:21;;;;;;;;;;;23.30;93.30;;;;;;4947083;28;20130;-60
2023/07/30 12:01:47;;;;;;;5.78;1.80;;;23.20;93.60;;;;;;4945811;28;20273;-58
2023/07/30 12:04:13;;;;;;;9.48;2.13;;;23.00;93.10;;;;;;4945331;28;20512;-61
2023/07/30 12:06:44;;;;;;;11.68;2.03;;;22.80;92.60;;;;;;4943795;28;20137;-59
2023/07/30 12:09:35;;;;;;;8.23;1.50;;;22.50;92.30;;;;;;4945626;28;20078;-60
2023/07/30 12:12:01;;;;;;;7.93;1.80;;;22.30;92.10;;;;;;4946514;28;20051;-60
2023/07/30 12:14:46;;;;;;;6.20;1.40;;;22.10;91.90;;;;;;4943535;28;20074;-60
2023/07/30 12:17:12;;;;;;;8.00;1.52;;;21.90;91.50;;;;;;4915682;28;20043;-59
2023/07/30 12:19:37;;;;;;;8.88;1.80;;;21.80;92.50;;;;;;4943157;28;20426;-59
2023/07/30 12:22:03;;;;;;;7.93;1.80;;;21.60;93.60;;;;;;4926733;28;20064;-58
2023/07/30 12:24:29;;;;;;;8.60;2.00;;;21.60;94.70;;;;;;4943407;28;20663;-57
2023/07/30 12:26:55;;;;;;;9.30;2.05;;;21.70;95.40;;;;;;4942440;28;20043;-60
2023/07/30 12:29:20;;;;;;;6.30;1.73;;;21.90;95.70;;;;;;4913992;28;20081;-58
2023/07/30 12:31:47;;;;;;;6.60;1.70;;;22.20;95.40;;;;;;4949675;28;20584;-60
2023/07/30 12:34:13;;;;;;;7.00;1.80;;;22.60;95.20;;;;;;4945369;28;20422;-60
2023/07/30 12:36:39;;;;;;;7.10;1.65;;;23.00;94.80;;;;;;4919672;28;20039;-60
2023/07/30 12:39:05;;;;;;;7.32;1.50;;;23.10;94.40;;;;;;4910010;28;20090;-59